createdAt,value
2022-08-17T00:00:49.248Z,100.00
2022-08-17T00:01:52.361Z,100.00
2022-08-17T00:02:46.559Z,100.00
2022-08-17T00:03:49.276Z,100.00
2022-08-17T00:04:51.901Z,100.00
2022-08-17T00:05:54.490Z,100.00
2022-08-17T00:06:57.343Z,100.00
2022-08-17T00:07:59.906Z,100.00
2022-08-17T00:09:02.479Z,100.00
2022-08-17T00:10:05.352Z,100.00
2022-08-17T00:11:07.913Z,100.00
2022-08-17T00:12:51.509Z,100.00
2022-08-17T00:13:14.991Z,100.00
2022-08-17T00:14:17.560Z,100.00
2022-08-17T00:15:20.126Z,100.00
2022-08-17T00:16:56.040Z,100.00
2022-08-17T00:17:28.043Z,100.00
2022-08-17T00:18:58.300Z,100.00
2022-08-17T00:19:35.005Z,100.00
2022-08-17T00:20:38.141Z,100.00
2022-08-17T00:22:32.942Z,100.00
2022-08-17T00:22:45.365Z,100.00
2022-08-17T00:23:49.301Z,100.00
2022-08-17T00:24:52.241Z,100.00
2022-08-17T00:25:54.768Z,100.00
2022-08-17T00:26:57.887Z,100.00
2022-08-17T00:28:00.571Z,100.00
2022-08-17T00:29:03.534Z,99.75
2022-08-17T00:30:06.512Z,99.05
2022-08-17T00:31:09.178Z,99.03
2022-08-17T00:33:12.041Z,98.61
2022-08-17T00:33:17.086Z,98.54
2022-08-17T00:34:19.952Z,97.96
2022-08-17T00:35:22.519Z,98.04
2022-08-17T00:36:26.928Z,98.06
2022-08-17T00:37:29.495Z,98.19
2022-08-17T00:38:32.075Z,98.34
2022-08-17T00:39:34.945Z,98.51
2022-08-17T00:40:40.601Z,98.77
2022-08-17T00:41:42.895Z,98.97
2022-08-17T00:42:45.956Z,99.04
2022-08-17T00:43:49.201Z,99.33
2022-08-17T00:44:51.723Z,98.62
2022-08-17T00:45:54.333Z,97.99
2022-08-17T00:46:57.516Z,97.78
2022-08-17T00:48:00.221Z,98.47
2022-08-17T00:49:02.856Z,97.97
2022-08-17T00:50:05.834Z,97.02
2022-08-17T00:51:08.806Z,97.34
2022-08-17T00:52:12.155Z,97.23
2022-08-17T00:53:15.685Z,97.61
2022-08-17T00:54:18.253Z,97.42
2022-08-17T00:55:20.921Z,98.00
2022-08-17T00:56:24.006Z,97.41
2022-08-17T00:57:26.973Z,97.23
2022-08-17T00:58:36.249Z,97.43
2022-08-17T00:59:34.158Z,97.61
2022-08-17T01:00:37.800Z,97.59
2022-08-17T01:01:40.653Z,97.90
2022-08-17T01:02:44.357Z,97.19
2022-08-17T01:03:47.287Z,96.19
2022-08-17T01:04:49.910Z,96.38
2022-08-17T01:05:52.480Z,97.66
2022-08-17T01:06:55.622Z,97.87
2022-08-17T01:07:58.279Z,98.39
2022-08-17T01:09:00.844Z,98.64
2022-08-17T01:10:03.923Z,98.96
2022-08-17T01:11:06.589Z,99.24
2022-08-17T01:12:09.265Z,98.59
2022-08-17T01:13:11.820Z,98.57
2022-08-17T01:14:14.499Z,98.53
2022-08-17T01:15:17.175Z,98.29
2022-08-17T01:16:20.249Z,99.05
2022-08-17T01:17:23.213Z,97.78
2022-08-17T01:18:25.881Z,98.74
2022-08-17T01:19:28.552Z,99.61
2022-08-17T01:20:31.844Z,99.53
2022-08-17T01:21:36.573Z,99.77
2022-08-17T01:22:39.180Z,99.41
2022-08-17T01:23:41.991Z,99.88
2022-08-17T01:24:44.778Z,99.03
2022-08-17T01:25:49.191Z,98.61
2022-08-17T01:26:52.047Z,97.87
2022-08-17T01:27:54.824Z,97.28
2022-08-17T01:28:57.388Z,96.98
2022-08-17T01:30:00.182Z,97.66
2022-08-17T01:31:02.829Z,98.95
2022-08-17T01:32:05.804Z,97.71
2022-08-17T01:33:08.473Z,100.00
2022-08-17T01:34:11.143Z,100.00
2022-08-17T01:35:14.221Z,100.00
2022-08-17T01:36:18.631Z,100.00
2022-08-17T01:37:21.213Z,100.00
2022-08-17T01:38:27.230Z,100.00
2022-08-17T01:39:28.320Z,100.00
2022-08-17T01:40:31.769Z,100.00
2022-08-17T01:41:34.437Z,100.00
2022-08-17T01:42:38.028Z,100.00
2022-08-17T01:43:40.726Z,100.00
2022-08-17T01:44:43.372Z,100.00
2022-08-17T01:45:46.056Z,100.00
2022-08-17T01:46:49.008Z,100.00
2022-08-17T01:47:51.721Z,100.00
2022-08-17T01:48:54.940Z,100.00
2022-08-17T01:49:57.532Z,100.00
2022-08-17T01:51:00.306Z,100.00
2022-08-17T01:52:02.932Z,100.00
2022-08-17T01:53:05.563Z,100.00
2022-08-17T01:54:08.240Z,100.00
2022-08-17T01:55:10.938Z,100.00
2022-08-17T01:56:14.575Z,100.00
2022-08-17T01:57:17.550Z,100.00
2022-08-17T01:58:20.237Z,100.00
2022-08-17T01:59:22.888Z,100.00
2022-08-17T02:00:26.396Z,100.00
2022-08-17T02:01:30.935Z,100.00
2022-08-17T02:02:34.993Z,100.00
2022-08-17T02:03:37.660Z,100.00
2022-08-17T02:04:40.535Z,100.00
2022-08-17T02:05:43.104Z,100.00
2022-08-17T02:06:53.207Z,100.00
2022-08-17T02:08:00.495Z,100.00
2022-08-17T02:09:01.867Z,100.00
2022-08-17T02:09:59.721Z,100.00
2022-08-17T02:11:02.697Z,100.00
2022-08-17T02:12:39.403Z,100.00
2022-08-17T02:13:10.804Z,100.00
2022-08-17T02:14:13.368Z,100.00
2022-08-17T02:15:15.848Z,100.00
2022-08-17T02:16:20.961Z,100.00
2022-08-17T02:17:23.940Z,100.00
2022-08-17T02:18:26.604Z,100.00
2022-08-17T02:19:29.508Z,100.00
2022-08-17T02:20:41.933Z,100.00
2022-08-17T02:21:37.580Z,100.00
2022-08-17T02:22:40.245Z,100.00
2022-08-17T02:23:43.116Z,100.00
2022-08-17T02:25:00.419Z,100.00
2022-08-17T02:25:50.411Z,100.00
2022-08-17T02:26:53.493Z,100.00
2022-08-17T02:27:56.465Z,100.00
2022-08-17T02:28:59.332Z,100.00
2022-08-17T02:30:01.900Z,100.00
2022-08-17T02:31:04.668Z,100.00
2022-08-17T02:32:07.237Z,100.00
2022-08-17T02:33:09.803Z,100.00
2022-08-17T02:34:12.389Z,100.00
2022-08-17T02:35:14.999Z,100.00
2022-08-17T02:36:24.154Z,100.00
2022-08-17T02:37:24.680Z,100.00
2022-08-17T02:38:27.246Z,100.00
2022-08-17T02:39:29.850Z,100.00
2022-08-17T02:40:36.105Z,100.00
2022-08-17T02:41:38.450Z,100.00
2022-08-17T02:42:41.097Z,100.00
2022-08-17T02:43:43.668Z,100.00
2022-08-17T02:44:46.332Z,100.00
2022-08-17T02:45:48.900Z,100.00
2022-08-17T02:46:53.620Z,100.00
2022-08-17T02:47:56.393Z,100.00
2022-08-17T02:48:59.062Z,100.00
2022-08-17T02:50:01.730Z,100.00
2022-08-17T02:51:04.296Z,100.00
2022-08-17T02:52:07.995Z,100.00
2022-08-17T02:53:10.657Z,100.00
2022-08-17T02:54:39.239Z,100.00
2022-08-17T02:55:18.350Z,100.00
2022-08-17T02:56:21.327Z,100.00
2022-08-17T02:57:23.839Z,100.00
2022-08-17T02:58:34.714Z,100.00
2022-08-17T02:59:30.768Z,100.00
2022-08-17T03:00:34.278Z,100.00
2022-08-17T03:01:37.326Z,100.00
2022-08-17T03:02:40.212Z,100.00
2022-08-17T03:03:42.876Z,100.00
2022-08-17T03:04:45.545Z,100.00
2022-08-17T03:05:48.119Z,100.00
2022-08-17T03:06:51.192Z,100.00
2022-08-17T03:07:53.759Z,100.00
2022-08-17T03:08:56.328Z,100.00
2022-08-17T03:09:58.998Z,100.00
2022-08-17T03:11:01.869Z,100.00
2022-08-17T03:12:04.557Z,100.00
2022-08-17T03:13:07.515Z,100.00
2022-08-17T03:14:10.083Z,100.00
2022-08-17T03:15:12.585Z,100.00
2022-08-17T03:16:16.163Z,100.00
2022-08-17T03:17:18.759Z,100.00
2022-08-17T03:18:25.264Z,100.00
2022-08-17T03:19:25.887Z,100.00
2022-08-17T03:20:28.987Z,100.00
2022-08-17T03:21:31.554Z,100.00
2022-08-17T03:22:36.713Z,100.00
2022-08-17T03:23:38.773Z,100.00
2022-08-17T03:24:41.383Z,100.00
2022-08-17T03:25:44.058Z,100.00
2022-08-17T03:26:47.131Z,100.00
2022-08-17T03:27:49.722Z,100.00
2022-08-17T03:28:54.209Z,100.00
2022-08-17T03:29:56.734Z,100.00
2022-08-17T03:30:59.684Z,100.00
2022-08-17T03:32:02.732Z,100.00
2022-08-17T03:33:05.302Z,100.00
2022-08-17T03:34:07.967Z,100.00
2022-08-17T03:35:10.635Z,100.00
2022-08-17T03:36:16.846Z,100.00
2022-08-17T03:37:19.566Z,100.00
2022-08-17T03:38:22.332Z,100.00
2022-08-17T03:39:26.235Z,100.00
2022-08-17T03:40:34.401Z,100.00
2022-08-17T03:41:34.051Z,100.00
2022-08-17T03:42:37.001Z,100.00
2022-08-17T03:43:39.978Z,100.00
2022-08-17T03:44:42.543Z,100.00
2022-08-17T03:45:45.111Z,100.00
2022-08-17T03:46:47.943Z,100.00
2022-08-17T03:47:50.509Z,100.00
2022-08-17T03:48:53.122Z,100.00
2022-08-17T03:49:55.993Z,100.00
2022-08-17T03:50:59.275Z,100.00
2022-08-17T03:52:03.691Z,100.00
2022-08-17T03:53:06.459Z,100.00
2022-08-17T03:54:09.022Z,100.00
2022-08-17T03:55:11.913Z,100.00
2022-08-17T03:56:15.183Z,100.00
2022-08-17T03:57:18.062Z,100.00
2022-08-17T03:58:20.728Z,100.00
2022-08-17T03:59:23.707Z,100.00
2022-08-17T04:00:28.730Z,100.00
2022-08-17T04:01:31.326Z,100.00
2022-08-17T04:02:34.478Z,100.00
2022-08-17T04:03:37.147Z,100.00
2022-08-17T04:04:39.719Z,100.00
2022-08-17T04:05:42.446Z,100.00
2022-08-17T04:06:45.413Z,100.00
2022-08-17T04:07:48.130Z,100.00
2022-08-17T04:08:50.695Z,100.00
2022-08-17T04:09:53.323Z,100.00
2022-08-17T04:10:56.140Z,100.00
2022-08-17T04:12:01.143Z,100.00
2022-08-17T04:13:03.222Z,100.00
2022-08-17T04:14:05.803Z,100.00
2022-08-17T04:15:08.450Z,100.00
2022-08-17T04:16:11.903Z,100.00
2022-08-17T04:17:14.606Z,100.00
2022-08-17T04:18:18.199Z,100.00
2022-08-17T04:19:20.767Z,100.00
2022-08-17T04:20:24.773Z,100.00
2022-08-17T04:21:27.713Z,100.00
2022-08-17T04:22:34.275Z,100.00
2022-08-17T04:23:34.922Z,100.00
2022-08-17T04:24:37.492Z,100.00
2022-08-17T04:25:40.015Z,100.00
2022-08-17T04:26:53.403Z,100.00
2022-08-17T04:27:47.343Z,100.00
2022-08-17T04:28:49.919Z,100.00
2022-08-17T04:29:54.938Z,100.00
2022-08-17T04:30:57.201Z,100.00
2022-08-17T04:31:59.889Z,100.00
2022-08-17T04:33:05.725Z,100.00
2022-08-17T04:34:06.943Z,100.00
2022-08-17T04:35:09.509Z,100.00
2022-08-17T04:36:12.857Z,100.00
2022-08-17T04:37:15.565Z,100.00
2022-08-17T04:38:18.143Z,100.00
2022-08-17T04:39:21.064Z,100.00
2022-08-17T04:40:27.170Z,100.00
2022-08-17T04:41:30.338Z,100.00
2022-08-17T04:42:32.902Z,100.00
2022-08-17T04:43:35.474Z,100.00
2022-08-17T04:44:38.242Z,100.00
2022-08-17T04:45:41.148Z,100.00
2022-08-17T04:46:45.940Z,100.00
2022-08-17T04:47:48.924Z,100.00
2022-08-17T04:48:51.483Z,100.00
2022-08-17T04:49:54.048Z,100.00
2022-08-17T04:50:56.919Z,100.00
2022-08-17T04:52:04.317Z,100.00
2022-08-17T04:53:04.410Z,100.00
2022-08-17T04:54:07.049Z,100.00
2022-08-17T04:55:09.752Z,100.00
2022-08-17T04:56:17.082Z,100.00
2022-08-17T04:57:17.647Z,100.00
2022-08-17T04:58:20.523Z,100.00
2022-08-17T04:59:23.188Z,100.00
2022-08-17T05:00:27.091Z,100.00
2022-08-17T05:01:30.060Z,100.00
2022-08-17T05:02:33.051Z,100.00
2022-08-17T05:03:35.708Z,100.00
2022-08-17T05:04:38.690Z,100.00
2022-08-17T05:05:41.355Z,100.00
2022-08-17T05:06:44.331Z,100.00
2022-08-17T05:07:46.897Z,100.00
2022-08-17T05:08:49.464Z,100.00
2022-08-17T05:09:52.047Z,100.00
2022-08-17T05:10:55.277Z,100.00
2022-08-17T05:11:57.881Z,100.00
2022-08-17T05:13:00.418Z,100.00
2022-08-17T05:14:03.017Z,100.00
2022-08-17T05:15:05.689Z,100.00
2022-08-17T05:16:08.933Z,100.00
2022-08-17T05:17:11.625Z,100.00
2022-08-17T05:18:14.312Z,100.00
2022-08-17T05:19:16.976Z,100.00
2022-08-17T05:20:21.288Z,100.00
2022-08-17T05:21:24.472Z,100.00
2022-08-17T05:22:27.141Z,100.00
2022-08-17T05:23:35.571Z,100.00
2022-08-17T05:24:42.601Z,100.00
2022-08-17T05:25:39.759Z,100.00
2022-08-17T05:26:43.138Z,100.00
2022-08-17T05:27:45.829Z,100.00
2022-08-17T05:28:49.608Z,100.00
2022-08-17T05:29:53.807Z,100.00
2022-08-17T05:30:56.770Z,100.00
2022-08-17T05:31:59.766Z,100.00
2022-08-17T05:33:03.009Z,100.00
2022-08-17T05:34:05.624Z,100.00
2022-08-17T05:35:08.366Z,100.00
2022-08-17T05:36:11.565Z,100.00
2022-08-17T05:37:15.984Z,100.00
2022-08-17T05:38:18.609Z,100.00
2022-08-17T05:39:21.107Z,100.00
2022-08-17T05:40:25.625Z,100.00
2022-08-17T05:41:28.248Z,100.00
2022-08-17T05:42:31.941Z,100.00
2022-08-17T05:43:34.548Z,100.00
2022-08-17T05:44:37.116Z,100.00
2022-08-17T05:45:54.153Z,100.00
2022-08-17T05:46:44.505Z,100.00
2022-08-17T05:47:47.376Z,100.00
2022-08-17T05:48:49.947Z,100.00
2022-08-17T05:49:53.834Z,98.58
2022-08-17T05:50:57.329Z,94.94
2022-08-17T05:52:00.268Z,97.01
2022-08-17T05:53:02.876Z,92.97
2022-08-17T05:54:05.547Z,93.92
2022-08-17T05:55:08.315Z,96.67
2022-08-17T05:56:29.203Z,96.22
2022-08-17T05:57:16.622Z,93.05
2022-08-17T05:58:21.047Z,95.39
2022-08-17T05:59:23.672Z,94.58
2022-08-17T06:00:30.593Z,94.17
2022-08-17T06:01:31.615Z,95.49
2022-08-17T06:02:34.268Z,93.29
2022-08-17T06:03:36.816Z,94.45
2022-08-17T06:04:39.377Z,96.40
2022-08-17T06:05:41.930Z,96.11
2022-08-17T06:06:44.849Z,95.14
2022-08-17T06:07:47.718Z,96.13
2022-08-17T06:08:51.764Z,97.29
2022-08-17T06:09:54.592Z,97.95
2022-08-17T06:10:57.527Z,97.32
2022-08-17T06:12:00.186Z,96.57
2022-08-17T06:13:02.908Z,94.37
2022-08-17T06:14:05.473Z,95.51
2022-08-17T06:15:08.057Z,95.66
2022-08-17T06:16:26.219Z,94.00
2022-08-17T06:17:15.738Z,93.79
2022-08-17T06:18:19.215Z,93.32
2022-08-17T06:19:21.996Z,91.05
2022-08-17T06:20:24.934Z,91.15
2022-08-17T06:21:30.503Z,91.97
2022-08-17T06:22:33.075Z,91.61
2022-08-17T06:23:35.640Z,90.55
2022-08-17T06:24:38.129Z,90.27
2022-08-17T06:25:40.782Z,92.15
2022-08-17T06:26:43.709Z,92.28
2022-08-17T06:27:46.427Z,90.82
2022-08-17T06:28:49.112Z,89.61
2022-08-17T06:29:51.768Z,91.38
2022-08-17T06:30:59.318Z,90.70
2022-08-17T06:31:59.145Z,91.19
2022-08-17T06:33:01.712Z,91.10
2022-08-17T06:34:04.598Z,88.06
2022-08-17T06:35:07.260Z,87.99
2022-08-17T06:36:10.805Z,88.97
2022-08-17T06:37:15.265Z,88.89
2022-08-17T06:38:38.238Z,86.53
2022-08-17T06:39:22.335Z,85.19
2022-08-17T06:40:25.624Z,85.62
2022-08-17T06:41:28.496Z,83.86
2022-08-17T06:43:02.847Z,84.44
2022-08-17T06:43:36.085Z,85.42
2022-08-17T06:44:43.597Z,85.93
2022-08-17T06:45:43.636Z,81.89
2022-08-17T06:46:46.449Z,81.83
2022-08-17T06:47:49.048Z,83.24
2022-08-17T06:48:51.686Z,82.52
2022-08-17T06:49:55.538Z,82.11
2022-08-17T06:50:58.698Z,83.58
2022-08-17T06:52:01.233Z,82.88
2022-08-17T06:53:03.877Z,84.15
2022-08-17T06:54:06.437Z,85.49
2022-08-17T06:55:09.606Z,82.87
2022-08-17T06:56:14.672Z,83.04
2022-08-17T06:57:17.241Z,83.12
2022-08-17T06:58:20.131Z,81.59
2022-08-17T06:59:23.093Z,80.05
2022-08-17T07:00:27.616Z,82.31
2022-08-17T07:01:30.662Z,80.21
2022-08-17T07:02:51.199Z,79.96
2022-08-17T07:03:38.719Z,80.69
2022-08-17T07:04:41.555Z,82.11
2022-08-17T07:05:45.861Z,79.92
2022-08-17T07:06:49.761Z,82.39
2022-08-17T07:07:52.386Z,81.55
2022-08-17T07:08:55.097Z,79.99
2022-08-17T07:09:57.665Z,81.78
2022-08-17T07:11:00.333Z,81.76
2022-08-17T07:12:02.900Z,81.92
2022-08-17T07:13:05.878Z,82.28
2022-08-17T07:14:08.546Z,82.25
2022-08-17T07:15:11.111Z,83.54
2022-08-17T07:16:15.528Z,82.41
2022-08-17T07:17:18.197Z,82.58
2022-08-17T07:18:20.969Z,83.06
2022-08-17T07:19:23.632Z,81.57
2022-08-17T07:20:26.714Z,81.90
2022-08-17T07:21:29.996Z,83.24
2022-08-17T07:22:53.501Z,82.88
2022-08-17T07:23:37.689Z,81.57
2022-08-17T07:24:40.356Z,81.24
2022-08-17T07:25:42.967Z,81.09
2022-08-17T07:26:45.698Z,81.85
2022-08-17T07:27:48.274Z,83.82
2022-08-17T07:28:51.239Z,81.35
2022-08-17T07:29:53.810Z,84.18
2022-08-17T07:30:56.688Z,82.15
2022-08-17T07:31:59.253Z,81.67
2022-08-17T07:33:01.916Z,81.63
2022-08-17T07:34:04.453Z,81.12
2022-08-17T07:35:07.078Z,81.18
2022-08-17T07:36:12.176Z,79.98
2022-08-17T07:37:14.744Z,80.79
2022-08-17T07:38:25.530Z,80.96
2022-08-17T07:39:21.850Z,80.20
2022-08-17T07:40:25.424Z,80.84
2022-08-17T07:41:57.423Z,79.54
2022-08-17T07:42:34.361Z,77.94
2022-08-17T07:43:37.620Z,79.41
2022-08-17T07:45:50.233Z,75.41
2022-08-17T07:46:53.312Z,75.74
2022-08-17T07:47:56.591Z,75.92
2022-08-17T07:48:59.160Z,75.70
2022-08-17T07:50:01.944Z,73.69
2022-08-17T07:51:04.612Z,73.13
2022-08-17T07:52:23.922Z,71.68
2022-08-17T07:53:12.098Z,72.96
2022-08-17T07:54:15.019Z,71.18
2022-08-17T07:55:18.105Z,71.82
2022-08-17T07:56:21.021Z,71.87
2022-08-17T07:57:29.414Z,73.67
2022-08-17T07:58:28.208Z,75.53
2022-08-17T07:59:33.710Z,74.92
2022-08-17T08:00:35.685Z,75.43
2022-08-17T08:01:42.062Z,74.65
2022-08-17T08:02:45.295Z,75.55
2022-08-17T08:03:52.403Z,75.10
2022-08-17T08:05:01.198Z,75.63
2022-08-17T08:05:56.930Z,74.04
2022-08-17T08:07:00.004Z,73.80
2022-08-17T08:08:02.573Z,73.90
2022-08-17T08:09:05.249Z,75.05
2022-08-17T08:10:08.315Z,75.57
2022-08-17T08:11:10.903Z,75.64
2022-08-17T08:12:15.944Z,76.53
2022-08-17T08:13:18.025Z,77.09
2022-08-17T08:14:20.838Z,75.68
2022-08-17T08:15:23.467Z,76.43
2022-08-17T08:16:26.793Z,74.61
2022-08-17T08:17:29.360Z,73.59
2022-08-17T08:18:38.556Z,72.41
2022-08-17T08:19:36.339Z,71.23
2022-08-17T08:20:52.029Z,70.34
2022-08-17T08:21:43.858Z,70.98
2022-08-17T08:22:46.805Z,69.77
2022-08-17T08:23:49.779Z,67.01
2022-08-17T08:24:52.549Z,65.23
2022-08-17T08:25:55.117Z,68.09
2022-08-17T08:26:59.316Z,65.04
2022-08-17T08:28:01.890Z,66.13
2022-08-17T08:29:04.859Z,63.69
2022-08-17T08:30:07.935Z,63.22
2022-08-17T08:31:10.463Z,63.87
2022-08-17T08:32:13.029Z,62.61
2022-08-17T08:33:15.697Z,65.33
2022-08-17T08:35:00.687Z,64.93
2022-08-17T08:35:22.834Z,64.74
2022-08-17T08:36:56.856Z,64.70
2022-08-17T08:37:35.721Z,66.14
2022-08-17T08:38:35.437Z,67.70
2022-08-17T08:39:38.146Z,64.13
2022-08-17T08:40:41.155Z,65.64
2022-08-17T08:41:44.017Z,66.85
2022-08-17T08:42:47.345Z,67.97
2022-08-17T08:43:53.118Z,68.47
2022-08-17T08:44:59.926Z,67.33
2022-08-17T08:45:59.351Z,67.55
2022-08-17T08:47:02.321Z,67.94
2022-08-17T08:48:05.300Z,68.79
2022-08-17T08:49:11.822Z,66.22
2022-08-17T08:50:34.127Z,67.73
2022-08-17T08:51:18.148Z,66.83
2022-08-17T08:52:20.759Z,67.09
2022-08-17T08:53:23.607Z,68.34
2022-08-17T08:54:26.944Z,69.70
2022-08-17T08:55:30.085Z,68.35
2022-08-17T08:56:34.333Z,69.88
2022-08-17T08:57:37.016Z,70.77
2022-08-17T08:58:41.379Z,72.30
2022-08-17T08:59:44.598Z,71.78
2022-08-17T09:00:48.588Z,72.95
2022-08-17T09:01:51.427Z,73.27
2022-08-17T09:02:54.299Z,71.44
2022-08-17T09:04:11.797Z,71.15
2022-08-17T09:05:16.267Z,69.69
2022-08-17T09:06:06.241Z,66.90
2022-08-17T09:07:10.613Z,67.15
2022-08-17T09:08:13.577Z,66.46
2022-08-17T09:09:16.502Z,67.76
2022-08-17T09:10:20.097Z,68.21
2022-08-17T09:11:22.664Z,69.63
2022-08-17T09:12:25.223Z,67.78
2022-08-17T09:13:27.823Z,67.08
2022-08-17T09:14:30.428Z,64.38
2022-08-17T09:15:34.936Z,63.22
2022-08-17T09:16:37.952Z,65.57
2022-08-17T09:17:40.521Z,63.75
2022-08-17T09:19:00.417Z,62.14
2022-08-17T09:19:47.700Z,63.09
2022-08-17T09:20:51.112Z,60.78
2022-08-17T09:21:53.652Z,62.18
2022-08-17T09:22:56.459Z,60.25
2022-08-17T09:23:59.054Z,63.63
2022-08-17T09:25:01.655Z,63.50
2022-08-17T09:26:04.738Z,63.72
2022-08-17T09:27:07.412Z,63.93
2022-08-17T09:28:09.997Z,64.91
2022-08-17T09:29:12.602Z,64.38
2022-08-17T09:30:16.358Z,63.59
2022-08-17T09:31:19.309Z,65.48
2022-08-17T09:32:21.879Z,66.20
2022-08-17T09:33:24.449Z,67.12
2022-08-17T09:34:29.619Z,62.73
2022-08-17T09:35:32.895Z,64.14
2022-08-17T09:36:36.856Z,66.61
2022-08-17T09:37:39.336Z,62.76
2022-08-17T09:38:41.888Z,63.30
2022-08-17T09:39:44.700Z,65.84
2022-08-17T09:40:47.737Z,63.51
2022-08-17T09:41:50.614Z,64.54
2022-08-17T09:42:53.689Z,62.32
2022-08-17T09:43:56.583Z,62.44
2022-08-17T09:44:59.601Z,62.43
2022-08-17T09:46:02.222Z,62.79
2022-08-17T09:47:04.883Z,62.23
2022-08-17T09:48:07.756Z,62.96
2022-08-17T09:49:10.487Z,61.96
2022-08-17T09:50:14.079Z,63.05
2022-08-17T09:51:16.785Z,73.32
2022-08-17T09:52:19.353Z,80.47
2022-08-17T09:53:21.979Z,79.17
2022-08-17T09:54:38.548Z,84.93
2022-08-17T09:55:29.101Z,79.97
2022-08-17T09:56:31.935Z,86.07
2022-08-17T09:57:34.547Z,80.98
2022-08-17T09:58:37.313Z,81.36
2022-08-17T09:59:39.982Z,76.70
2022-08-17T10:00:44.728Z,80.15
2022-08-17T10:01:47.437Z,71.89
2022-08-17T10:02:50.095Z,76.69
2022-08-17T10:03:52.704Z,73.35
2022-08-17T10:04:55.273Z,72.75
2022-08-17T10:05:58.147Z,71.41
2022-08-17T10:07:01.129Z,73.04
2022-08-17T10:08:04.673Z,75.18
2022-08-17T10:09:07.390Z,71.14
2022-08-17T10:10:14.196Z,68.05
2022-08-17T10:11:15.515Z,74.82
2022-08-17T10:12:18.098Z,71.38
2022-08-17T10:13:20.825Z,73.34
2022-08-17T10:14:37.537Z,67.58
2022-08-17T10:15:29.843Z,69.43
2022-08-17T10:16:34.114Z,66.49
2022-08-17T10:17:36.722Z,66.94
2022-08-17T10:18:39.297Z,63.90
2022-08-17T10:19:43.945Z,62.30
2022-08-17T10:20:46.779Z,60.92
2022-08-17T10:21:49.551Z,60.60
2022-08-17T10:22:54.995Z,56.92
2022-08-17T10:23:57.964Z,57.76
2022-08-17T10:25:21.408Z,56.00
2022-08-17T10:26:05.348Z,56.72
2022-08-17T10:27:08.078Z,57.29
2022-08-17T10:28:19.693Z,56.46
2022-08-17T10:29:15.198Z,55.49
2022-08-17T10:30:18.280Z,55.29
2022-08-17T10:31:36.472Z,52.14
2022-08-17T10:32:25.374Z,52.05
2022-08-17T10:33:28.053Z,53.31
2022-08-17T10:34:36.147Z,53.40
2022-08-17T10:35:35.063Z,53.69
2022-08-17T10:36:37.951Z,53.88
2022-08-17T10:37:40.554Z,54.45
2022-08-17T10:38:43.215Z,53.24
2022-08-17T10:39:52.482Z,53.61
2022-08-17T10:40:50.703Z,52.15
2022-08-17T10:41:53.743Z,51.68
2022-08-17T10:42:56.456Z,53.32
2022-08-17T10:44:39.516Z,53.08
2022-08-17T10:45:03.839Z,51.73
2022-08-17T10:46:09.223Z,50.82
2022-08-17T10:47:11.359Z,51.00
2022-08-17T10:48:14.262Z,50.19
2022-08-17T10:49:17.071Z,49.73
2022-08-17T10:50:20.161Z,49.89
2022-08-17T10:51:23.033Z,48.12
2022-08-17T10:52:25.598Z,47.07
2022-08-17T10:53:28.077Z,47.58
2022-08-17T10:54:31.143Z,48.58
2022-08-17T10:55:33.705Z,47.64
2022-08-17T10:56:36.686Z,46.60
2022-08-17T10:57:39.289Z,47.90
2022-08-17T10:58:41.916Z,47.55
2022-08-17T10:59:44.696Z,47.85
2022-08-17T11:00:47.750Z,47.98
2022-08-17T11:01:50.858Z,47.26
2022-08-17T11:02:54.080Z,47.62
2022-08-17T11:03:56.910Z,47.94
2022-08-17T11:04:59.582Z,49.51
2022-08-17T11:06:02.513Z,48.73
2022-08-17T11:07:05.128Z,50.18
2022-08-17T11:08:08.207Z,49.00
2022-08-17T11:09:10.864Z,48.99
2022-08-17T11:10:14.778Z,49.94
2022-08-17T11:11:17.408Z,50.24
2022-08-17T11:12:20.005Z,48.99
2022-08-17T11:13:22.670Z,49.85
2022-08-17T11:14:25.198Z,50.22
2022-08-17T11:15:28.142Z,46.59
2022-08-17T11:16:32.932Z,48.41
2022-08-17T11:17:35.601Z,48.08
2022-08-17T11:18:38.206Z,46.94
2022-08-17T11:19:40.840Z,47.20
2022-08-17T11:20:43.920Z,47.22
2022-08-17T11:21:46.900Z,48.82
2022-08-17T11:22:49.725Z,48.66
2022-08-17T11:23:52.850Z,48.81
2022-08-17T11:24:55.473Z,49.28
2022-08-17T11:25:58.041Z,49.55
2022-08-17T11:27:01.170Z,48.90
2022-08-17T11:28:04.143Z,50.29
2022-08-17T11:29:06.807Z,50.31
2022-08-17T11:30:10.148Z,48.90
2022-08-17T11:31:12.832Z,48.13
2022-08-17T11:32:15.694Z,47.25
2022-08-17T11:33:18.320Z,45.63
2022-08-17T11:34:22.817Z,45.47
2022-08-17T11:35:25.488Z,45.50
2022-08-17T11:36:31.845Z,44.57
2022-08-17T11:37:34.406Z,45.82
2022-08-17T11:38:36.974Z,46.66
2022-08-17T11:39:39.733Z,46.56
2022-08-17T11:40:42.717Z,46.84
2022-08-17T11:41:45.719Z,46.63
2022-08-17T11:42:48.634Z,45.56
2022-08-17T11:43:51.854Z,45.72
2022-08-17T11:44:54.543Z,46.60
2022-08-17T11:45:57.501Z,46.56
2022-08-17T11:47:00.273Z,45.35
2022-08-17T11:48:26.724Z,44.91
2022-08-17T11:49:07.356Z,43.03
2022-08-17T11:50:10.638Z,45.33
2022-08-17T11:51:13.313Z,44.00
2022-08-17T11:52:15.992Z,43.50
2022-08-17T11:53:19.266Z,42.49
2022-08-17T11:54:32.957Z,43.47
2022-08-17T11:55:34.987Z,43.22
2022-08-17T11:56:32.487Z,42.49
2022-08-17T11:57:35.053Z,41.65
2022-08-17T11:58:37.733Z,42.73
2022-08-17T11:59:40.351Z,42.49
2022-08-17T12:00:43.166Z,41.20
2022-08-17T12:01:45.838Z,40.56
2022-08-17T12:02:48.947Z,42.12
2022-08-17T12:03:54.426Z,43.34
2022-08-17T12:04:56.332Z,41.58
2022-08-17T12:05:58.966Z,42.00
2022-08-17T12:07:01.947Z,42.23
2022-08-17T12:08:05.127Z,42.38
2022-08-17T12:09:07.800Z,41.54
2022-08-17T12:10:11.184Z,41.63
2022-08-17T12:11:14.121Z,42.74
2022-08-17T12:12:16.840Z,41.86
2022-08-17T12:13:19.870Z,43.01
2022-08-17T12:14:32.201Z,42.60
2022-08-17T12:15:27.300Z,42.17
2022-08-17T12:16:30.481Z,41.74
2022-08-17T12:17:40.837Z,41.66
2022-08-17T12:18:37.768Z,42.71
2022-08-17T12:19:40.390Z,42.50
2022-08-17T12:20:43.419Z,42.45
2022-08-17T12:21:46.076Z,42.85
2022-08-17T12:22:48.749Z,44.92
2022-08-17T12:23:51.718Z,43.70
2022-08-17T12:24:54.288Z,42.88
2022-08-17T12:25:56.957Z,41.22
2022-08-17T12:27:00.064Z,39.76
2022-08-17T12:28:04.895Z,40.67
2022-08-17T12:29:07.215Z,41.03
2022-08-17T12:30:13.468Z,38.45
2022-08-17T12:31:16.034Z,37.85
2022-08-17T12:32:18.619Z,37.72
2022-08-17T12:33:25.778Z,37.57
2022-08-17T12:34:25.683Z,37.44
2022-08-17T12:35:28.463Z,40.12
2022-08-17T12:36:31.739Z,39.06
2022-08-17T12:37:34.715Z,38.13
2022-08-17T12:38:37.382Z,39.23
2022-08-17T12:39:39.986Z,41.10
2022-08-17T12:40:42.928Z,38.65
2022-08-17T12:41:45.597Z,38.07
2022-08-17T12:42:48.841Z,36.88
2022-08-17T12:43:51.656Z,38.63
2022-08-17T12:44:54.306Z,38.01
2022-08-17T12:45:56.872Z,38.92
2022-08-17T12:46:59.966Z,37.67
2022-08-17T12:48:02.694Z,36.63
2022-08-17T12:49:05.419Z,38.45
2022-08-17T12:50:28.619Z,38.07
2022-08-17T12:51:13.265Z,37.66
2022-08-17T12:52:16.108Z,37.19
2022-08-17T12:53:18.747Z,38.58
2022-08-17T12:54:21.420Z,38.20
2022-08-17T12:55:24.619Z,39.59
2022-08-17T12:56:29.724Z,39.89
2022-08-17T12:57:32.394Z,39.44
2022-08-17T12:58:35.063Z,40.46
2022-08-17T12:59:37.931Z,38.52
2022-08-17T13:00:40.790Z,38.68
2022-08-17T13:01:45.368Z,36.66
2022-08-17T13:02:48.261Z,38.46
2022-08-17T13:03:50.886Z,38.70
2022-08-17T13:04:53.538Z,39.08
2022-08-17T13:05:56.213Z,39.36
2022-08-17T13:07:00.272Z,37.37
2022-08-17T13:08:03.142Z,39.51
2022-08-17T13:09:05.747Z,37.77
2022-08-17T13:10:09.115Z,38.96
2022-08-17T13:11:11.807Z,37.59
2022-08-17T13:12:14.476Z,38.13
2022-08-17T13:13:17.143Z,38.81
2022-08-17T13:14:19.821Z,39.06
2022-08-17T13:15:22.484Z,38.44
2022-08-17T13:16:27.101Z,37.88
2022-08-17T13:17:29.876Z,38.14
2022-08-17T13:18:32.641Z,38.49
2022-08-17T13:19:40.727Z,38.69
2022-08-17T13:20:40.131Z,38.43
2022-08-17T13:21:43.107Z,38.80
2022-08-17T13:22:45.776Z,38.74
2022-08-17T13:23:53.531Z,39.19
2022-08-17T13:24:53.354Z,40.37